createdAt,value
2018-12-07T00:00:04.387Z,26.27
2018-12-07T00:02:39.132Z,34.33
2018-12-07T00:05:15.031Z,34.63
2018-12-07T00:07:47.428Z,29.73
2018-12-07T00:10:22.065Z,29.87
2018-12-07T00:12:57.195Z,31.60
2018-12-07T00:15:39.005Z,29.33
2018-12-07T00:18:14.375Z,26.67
2018-12-07T00:20:46.958Z,31.87
2018-12-07T00:23:18.861Z,29.73
2018-12-07T00:25:51.040Z,30.03
2018-12-07T00:28:23.257Z,24.03
2018-12-07T00:30:57.942Z,29.33
2018-12-07T00:33:35.982Z,28.63
2018-12-07T00:36:12.240Z,24.77
2018-12-07T00:38:47.084Z,25.70
2018-12-07T00:41:22.422Z,26.13
2018-12-07T00:43:57.610Z,24.93
2018-12-07T00:46:29.748Z,29.60
2018-12-07T00:49:08.294Z,28.63
2018-12-07T00:51:41.774Z,28.63
2018-12-07T00:54:17.650Z,25.20
2018-12-07T00:56:52.666Z,27.07
2018-12-07T00:59:24.717Z,26.93
2018-12-07T01:02:00.401Z,27.63
2018-12-07T01:04:35.776Z,28.03
2018-12-07T01:07:11.653Z,20.50
2018-12-07T01:09:46.809Z,27.83
2018-12-07T01:12:21.944Z,32.87
2018-12-07T01:14:54.238Z,27.10
2018-12-07T01:17:30.010Z,25.63
2018-12-07T01:20:02.746Z,23.50
2018-12-07T01:22:34.940Z,27.63
2018-12-07T01:25:07.616Z,23.37
2018-12-07T01:27:39.831Z,30.27
2018-12-07T01:30:14.735Z,29.03
2018-12-07T01:32:47.064Z,26.60
2018-12-07T01:35:19.231Z,34.83
2018-12-07T01:37:51.482Z,28.73
2018-12-07T01:40:26.484Z,30.43
2018-12-07T01:43:01.550Z,32.00
2018-12-07T01:45:34.067Z,29.13
2018-12-07T01:48:08.952Z,35.13
2018-12-07T01:50:44.153Z,32.87
2018-12-07T01:53:16.612Z,33.53
2018-12-07T01:55:51.391Z,32.27
2018-12-07T01:58:26.404Z,30.67
2018-12-07T02:01:01.466Z,26.13
2018-12-07T02:03:33.872Z,38.33
2018-12-07T02:06:05.923Z,37.57
2018-12-07T02:08:40.992Z,34.57
2018-12-07T02:11:15.896Z,31.80
2018-12-07T02:13:48.332Z,35.10
2018-12-07T02:16:22.944Z,32.57
2018-12-07T02:18:55.372Z,35.67
2018-12-07T02:21:27.250Z,34.70
2018-12-07T02:24:02.469Z,38.23
2018-12-07T02:26:41.124Z,41.03
2018-12-07T02:29:18.271Z,32.03
2018-12-07T02:31:57.671Z,33.67
2018-12-07T02:34:29.964Z,32.00
2018-12-07T02:37:04.883Z,35.03
2018-12-07T02:39:40.088Z,35.17
2018-12-07T02:42:12.537Z,29.43
2018-12-07T02:44:47.663Z,30.23
2018-12-07T02:47:19.938Z,35.37
2018-12-07T02:49:58.535Z,31.17
2018-12-07T02:52:33.573Z,34.87
2018-12-07T02:55:08.921Z,30.33
2018-12-07T02:57:41.127Z,37.03
2018-12-07T03:00:13.268Z,29.27
2018-12-07T03:02:45.260Z,29.53
2018-12-07T03:05:22.038Z,30.83
2018-12-07T03:07:57.184Z,33.63
2018-12-07T03:10:32.152Z,32.93
2018-12-07T03:13:04.488Z,27.57
2018-12-07T03:15:36.714Z,31.83
2018-12-07T03:18:23.608Z,32.63
2018-12-07T03:20:59.015Z,30.67
2018-12-07T03:23:33.821Z,30.97
2018-12-07T03:26:09.019Z,34.37
2018-12-07T03:28:43.747Z,30.73
2018-12-07T03:31:18.736Z,29.20
2018-12-07T03:33:51.073Z,26.37
2018-12-07T03:36:22.991Z,31.63
2018-12-07T03:38:55.135Z,27.77
2018-12-07T03:41:27.288Z,31.57
2018-12-07T03:44:01.831Z,32.30
2018-12-07T03:47:00.945Z,32.00
2018-12-07T03:49:33.669Z,28.83
2018-12-07T03:52:08.564Z,31.00
2018-12-07T03:54:43.530Z,34.10
2018-12-07T03:57:18.858Z,31.60
2018-12-07T03:59:53.558Z,36.20
2018-12-07T04:02:26.060Z,32.13
2018-12-07T04:05:00.823Z,38.97
2018-12-07T04:07:37.587Z,35.43
2018-12-07T04:10:13.134Z,31.33
2018-12-07T04:12:45.773Z,34.10
2018-12-07T04:15:22.120Z,35.50
2018-12-07T04:17:54.650Z,31.60
2018-12-07T04:20:29.292Z,36.07
2018-12-07T04:23:01.597Z,37.60
2018-12-07T04:25:36.521Z,39.10
2018-12-07T04:28:11.618Z,35.70
2018-12-07T04:30:44.036Z,30.60
2018-12-07T04:33:15.892Z,35.90
2018-12-07T04:35:52.388Z,34.07
2018-12-07T04:38:28.206Z,31.87
2018-12-07T04:41:00.243Z,32.97
2018-12-07T04:43:35.109Z,33.63
2018-12-07T04:46:07.624Z,32.63
2018-12-07T04:48:42.290Z,33.47
2018-12-07T04:51:14.473Z,33.40
2018-12-07T04:53:49.386Z,32.37
2018-12-07T04:56:24.424Z,32.87
2018-12-07T04:58:57.417Z,32.13
2018-12-07T05:01:29.652Z,30.93
2018-12-07T05:04:04.579Z,31.63
2018-12-07T05:06:36.899Z,32.03
2018-12-07T05:09:11.799Z,32.23
2018-12-07T05:11:47.557Z,32.90
2018-12-07T05:14:20.403Z,34.50
2018-12-07T05:16:55.769Z,30.97
2018-12-07T05:19:31.634Z,37.20
2018-12-07T05:22:06.713Z,33.83
2018-12-07T05:24:41.685Z,29.10
2018-12-07T05:27:16.623Z,33.57
2018-12-07T05:29:49.205Z,32.27
2018-12-07T05:32:21.747Z,35.23
2018-12-07T05:34:57.224Z,35.83
2018-12-07T05:37:32.731Z,32.13
2018-12-07T05:40:07.874Z,33.13
2018-12-07T05:42:40.265Z,35.43
2018-12-07T05:45:14.837Z,33.07
2018-12-07T05:47:47.365Z,37.83
2018-12-07T05:50:24.087Z,33.20
2018-12-07T05:52:56.555Z,40.33
2018-12-07T05:55:28.658Z,31.63
2018-12-07T05:58:00.591Z,35.33
2018-12-07T06:00:33.143Z,39.77
2018-12-07T06:03:05.071Z,36.63
2018-12-07T06:05:41.842Z,36.00
2018-12-07T06:08:14.190Z,33.90
2018-12-07T06:10:46.204Z,28.87
2018-12-07T06:13:20.961Z,31.93
2018-12-07T06:15:53.926Z,35.70
2018-12-07T06:18:28.555Z,33.20
2018-12-07T06:21:00.756Z,35.20
2018-12-07T06:23:33.532Z,29.63
2018-12-07T06:26:08.881Z,31.53
2018-12-07T06:28:43.818Z,28.37
2018-12-07T06:31:16.095Z,31.57
2018-12-07T06:33:48.560Z,28.27
2018-12-07T06:36:20.371Z,29.37
2018-12-07T06:38:55.247Z,33.50
2018-12-07T06:41:30.433Z,33.20
2018-12-07T06:44:02.859Z,28.73
2018-12-07T06:46:37.830Z,28.63
2018-12-07T06:49:12.946Z,30.53
2018-12-07T06:51:47.918Z,31.83
2018-12-07T06:54:23.550Z,29.13
2018-12-07T06:56:58.241Z,27.30
2018-12-07T07:09:52.006Z,30.73
2018-12-07T07:25:22.791Z,31.10
2018-12-07T07:27:55.405Z,29.53
2018-12-07T07:30:31.252Z,32.00
2018-12-07T07:33:06.605Z,29.03
2018-12-07T07:35:40.032Z,28.27
2018-12-07T07:38:16.793Z,31.37
2018-12-07T07:40:49.812Z,29.73
2018-12-07T07:43:21.722Z,31.03
2018-12-07T07:45:53.667Z,30.43
2018-12-07T07:48:29.665Z,30.70
2018-12-07T07:54:03.666Z,32.73
2018-12-07T07:56:37.157Z,42.77
2018-12-07T07:59:12.154Z,34.73
2018-12-07T08:01:47.297Z,43.80
2018-12-07T08:04:22.366Z,45.00
2018-12-07T08:06:57.373Z,43.50
2018-12-07T08:09:32.772Z,48.03
2018-12-07T08:12:05.200Z,42.30
2018-12-07T08:14:39.867Z,39.43
2018-12-07T08:17:12.126Z,40.07
2018-12-07T08:19:44.239Z,37.80
2018-12-07T08:22:19.738Z,39.30
2018-12-07T08:24:52.147Z,32.93
2018-12-07T08:27:24.379Z,35.53
2018-12-07T08:29:59.159Z,36.43
2018-12-07T08:32:34.027Z,37.30
2018-12-07T08:35:11.501Z,31.90
2018-12-07T08:37:46.532Z,38.97
2018-12-07T08:40:18.745Z,35.67
2018-12-07T08:42:53.604Z,44.37
2018-12-07T08:45:26.215Z,37.90
2018-12-07T08:47:58.115Z,37.30
2018-12-07T08:50:33.058Z,32.93
2018-12-07T08:53:08.063Z,33.73
2018-12-07T08:55:47.064Z,34.50
2018-12-07T08:58:24.764Z,33.63
2018-12-07T09:00:57.496Z,29.10
2018-12-07T09:03:32.248Z,28.77
2018-12-07T09:06:07.431Z,32.30
2018-12-07T09:08:42.592Z,29.73
2018-12-07T09:11:15.547Z,30.17
2018-12-07T09:13:48.142Z,33.77
2018-12-07T09:16:25.091Z,31.77
2018-12-07T09:18:57.383Z,35.13
2018-12-07T09:21:29.711Z,33.23
2018-12-07T09:24:04.665Z,33.70
2018-12-07T09:26:41.606Z,31.97
2018-12-07T09:29:16.886Z,30.87
2018-12-07T09:31:51.739Z,32.03
2018-12-07T09:34:23.985Z,31.77
2018-12-07T09:36:58.648Z,34.93
2018-12-07T09:39:33.679Z,29.07
2018-12-07T09:42:06.380Z,31.20
2018-12-07T09:44:38.862Z,34.80
2018-12-07T09:47:13.850Z,33.10
2018-12-07T09:49:45.922Z,32.50
2018-12-07T09:52:21.121Z,34.90
2018-12-07T09:54:53.300Z,31.90
2018-12-07T09:57:28.160Z,33.60
2018-12-07T10:00:03.474Z,41.30
2018-12-07T10:02:38.240Z,38.67
2018-12-07T10:05:13.421Z,40.83
2018-12-07T10:07:48.616Z,41.67
2018-12-07T10:10:20.910Z,42.90
2018-12-07T10:12:56.022Z,37.93
2018-12-07T10:15:28.280Z,40.33
2018-12-07T10:18:07.136Z,40.27
2018-12-07T10:20:41.896Z,39.43
2018-12-07T10:23:24.665Z,38.30
2018-12-07T10:25:57.433Z,38.30
2018-12-07T10:28:32.296Z,36.57
2018-12-07T10:31:07.333Z,36.93
2018-12-07T10:33:46.197Z,34.07
2018-12-07T10:36:23.093Z,36.17
2018-12-07T10:38:56.730Z,35.83
2018-12-07T10:41:28.645Z,38.83
2018-12-07T10:44:03.630Z,32.10
2018-12-07T10:46:42.371Z,32.63
2018-12-07T10:49:17.802Z,35.70
2018-12-07T10:51:51.004Z,39.60
2018-12-07T10:54:22.932Z,37.63
2018-12-07T10:56:55.175Z,37.70
2018-12-07T10:59:27.250Z,41.23
2018-12-07T11:02:06.123Z,40.47
2018-12-07T11:04:43.827Z,35.30
2018-12-07T11:07:22.005Z,37.93
2018-12-07T11:10:03.553Z,37.37
2018-12-07T11:12:42.982Z,33.83
2018-12-07T11:15:23.774Z,35.70
2018-12-07T11:18:01.926Z,35.37
2018-12-07T11:20:39.907Z,36.83
2018-12-07T11:23:23.175Z,39.23
2018-12-07T11:29:08.663Z,39.07
2018-12-07T11:31:50.022Z,40.27
2018-12-07T11:34:26.424Z,45.43
2018-12-07T11:36:58.428Z,37.23
2018-12-07T11:39:33.090Z,39.10
2018-12-07T11:42:08.261Z,33.43
2018-12-07T11:44:40.476Z,33.93
2018-12-07T11:47:15.859Z,35.27
2018-12-07T11:49:51.189Z,33.70
2018-12-07T11:52:26.277Z,32.80
2018-12-07T11:54:59.025Z,33.33
2018-12-07T11:57:34.808Z,32.37
2018-12-07T12:00:10.155Z,32.77
2018-12-07T12:02:44.863Z,29.73
2018-12-07T12:05:19.817Z,32.53
2018-12-07T12:07:57.767Z,33.07
2018-12-07T12:10:33.030Z,27.67
2018-12-07T12:13:08.086Z,32.43
2018-12-07T12:15:40.606Z,31.27
2018-12-07T12:18:15.830Z,32.30
2018-12-07T12:20:50.604Z,30.30
2018-12-07T12:23:25.634Z,29.57
2018-12-07T12:25:57.963Z,33.40
2018-12-07T12:28:32.879Z,30.37
2018-12-07T12:31:11.400Z,33.50
2018-12-07T12:33:43.732Z,34.60
2018-12-07T12:36:18.589Z,36.87
2018-12-07T12:42:00.818Z,38.10
2018-12-07T12:44:35.963Z,30.90
2018-12-07T12:47:12.703Z,31.70
2018-12-07T12:49:48.072Z,31.30
2018-12-07T12:52:23.270Z,32.60
2018-12-07T12:54:58.009Z,27.77
2018-12-07T12:57:33.152Z,30.53
2018-12-07T13:00:08.092Z,28.27
2018-12-07T13:02:45.339Z,27.87
2018-12-07T13:05:18.700Z,27.43
2018-12-07T13:07:55.026Z,28.50
2018-12-07T13:10:29.977Z,26.50
2018-12-07T13:13:05.215Z,27.63
2018-12-07T13:15:42.039Z,27.30
2018-12-07T13:18:18.878Z,28.73
2018-12-07T13:20:51.535Z,28.10
2018-12-07T13:23:23.896Z,29.87
2018-12-07T13:25:59.446Z,30.77
2018-12-07T13:28:31.945Z,26.80
2018-12-07T13:31:06.745Z,27.57
2018-12-07T13:33:41.839Z,29.67
2018-12-07T13:36:14.235Z,32.07
2018-12-07T13:38:46.190Z,29.87
2018-12-07T13:41:20.842Z,28.83
2018-12-07T13:43:55.926Z,32.77
2018-12-07T13:46:30.712Z,27.27
2018-12-07T13:49:06.298Z,32.87
2018-12-07T13:51:41.116Z,31.67
2018-12-07T13:54:16.690Z,28.60
2018-12-07T13:56:52.268Z,31.70
2018-12-07T13:59:24.900Z,34.20
2018-12-07T14:02:01.609Z,29.20
2018-12-07T14:04:34.520Z,29.20
2018-12-07T14:07:07.082Z,32.50
2018-12-07T14:09:39.377Z,26.47
2018-12-07T14:12:14.934Z,28.97
2018-12-07T14:14:51.175Z,26.87
2018-12-07T14:17:26.185Z,31.03
2018-12-07T14:20:02.396Z,31.00
2018-12-07T14:22:37.280Z,32.37
2018-12-07T14:25:10.188Z,34.77
2018-12-07T14:27:45.417Z,33.37
2018-12-07T14:30:20.555Z,35.33
2018-12-07T14:32:52.643Z,33.67
2018-12-07T14:35:24.681Z,40.20
2018-12-07T14:38:00.621Z,33.60
2018-12-07T14:40:35.891Z,40.10
2018-12-07T14:43:13.296Z,35.50
2018-12-07T14:45:51.613Z,42.83
2018-12-07T14:48:23.584Z,41.03
2018-12-07T14:50:58.431Z,42.17
2018-12-07T14:53:35.206Z,39.93
2018-12-07T14:56:11.057Z,41.23
2018-12-07T14:58:44.036Z,42.50
2018-12-07T15:01:16.632Z,40.70
2018-12-07T15:03:52.168Z,41.87
2018-12-07T15:06:27.444Z,37.90
2018-12-07T15:09:02.654Z,34.13
2018-12-07T15:11:35.040Z,41.67
2018-12-07T15:14:07.073Z,34.97
2018-12-07T15:16:38.063Z,38.87
2018-12-07T15:19:13.615Z,35.57
2018-12-07T15:21:50.194Z,33.97
2018-12-07T15:24:23.106Z,32.87
2018-12-07T15:26:55.326Z,31.33
2018-12-07T15:29:36.869Z,29.97
2018-12-07T15:32:10.127Z,33.90
2018-12-07T15:34:42.661Z,31.87
2018-12-07T15:37:14.742Z,31.17
2018-12-07T15:39:49.753Z,30.13
2018-12-07T15:42:21.796Z,30.70
2018-12-07T15:44:54.248Z,30.00
2018-12-07T15:47:26.778Z,28.80
2018-12-07T15:49:58.865Z,34.03
2018-12-07T15:52:34.492Z,33.87
2018-12-07T15:55:07.187Z,35.90
2018-12-07T15:57:40.858Z,35.43
2018-12-07T16:00:13.741Z,34.57
2018-12-07T16:02:46.421Z,35.93
2018-12-07T16:05:18.957Z,34.13
2018-12-07T16:07:54.325Z,37.77
2018-12-07T16:10:30.999Z,33.97
2018-12-07T16:13:05.904Z,38.97
2018-12-07T16:15:41.670Z,36.43
2018-12-07T16:18:14.037Z,47.93
2018-12-07T16:20:48.799Z,42.97
2018-12-07T16:23:21.263Z,44.80
2018-12-07T16:25:53.450Z,50.50
2018-12-07T16:28:26.226Z,48.47
2018-12-07T16:30:58.183Z,45.57
2018-12-07T16:33:30.366Z,40.30
2018-12-07T16:36:03.478Z,39.57
2018-12-07T16:38:43.009Z,43.67
2018-12-07T16:41:18.674Z,41.20
2018-12-07T16:43:51.287Z,35.70
2018-12-07T17:01:50.043Z,35.63
2018-12-07T17:04:22.383Z,31.17
2018-12-07T17:06:59.116Z,30.73
2018-12-07T17:09:34.324Z,33.77
2018-12-07T17:12:07.060Z,34.43
2018-12-07T17:14:41.579Z,38.00
2018-12-07T17:17:15.920Z,36.87
2018-12-07T17:19:48.298Z,37.30
2018-12-07T17:22:24.756Z,33.63
2018-12-07T17:24:57.702Z,36.40
2018-12-07T17:27:35.154Z,32.63
2018-12-07T17:30:11.694Z,34.23
2018-12-07T17:32:44.024Z,34.30
2018-12-07T17:35:21.500Z,31.93
2018-12-07T17:37:54.149Z,31.00
2018-12-07T17:40:26.554Z,35.03
2018-12-07T17:42:59.569Z,36.33
2018-12-07T17:45:34.973Z,34.10
2018-12-07T17:48:07.358Z,37.43
2018-12-07T17:50:39.413Z,37.87
2018-12-07T17:53:14.142Z,32.53
2018-12-07T17:55:49.233Z,39.93
2018-12-07T17:58:35.176Z,30.90
2018-12-07T18:01:10.445Z,36.63
2018-12-07T18:03:47.498Z,35.00
2018-12-07T18:14:08.824Z,35.67
2018-12-07T18:16:43.649Z,36.57
2018-12-07T18:19:22.579Z,35.53
2018-12-07T18:21:57.927Z,33.77
2018-12-07T18:24:41.692Z,34.03
2018-12-07T18:27:15.155Z,33.63
2018-12-07T18:29:47.782Z,31.17
2018-12-07T18:32:23.340Z,33.97
2018-12-07T18:35:01.835Z,30.83
2018-12-07T18:37:34.735Z,37.93
2018-12-07T18:40:17.240Z,40.70
2018-12-07T18:42:53.344Z,33.73
2018-12-07T18:45:29.772Z,33.93
2018-12-07T18:48:03.358Z,39.67
2018-12-07T18:50:39.591Z,39.50
2018-12-07T18:53:14.884Z,38.73
2018-12-07T18:55:47.544Z,33.63
2018-12-07T18:58:20.000Z,34.40
2018-12-07T19:00:53.327Z,32.70
2018-12-07T19:03:28.768Z,32.53
2018-12-07T19:06:00.840Z,33.93
2018-12-07T19:08:32.926Z,37.60
2018-12-07T19:11:08.227Z,36.27
2018-12-07T19:13:40.246Z,34.30
2018-12-07T19:16:15.134Z,37.37
2018-12-07T19:18:47.345Z,39.13
2018-12-07T19:21:22.895Z,33.80
2018-12-07T19:23:55.786Z,31.63
2018-12-07T19:26:31.372Z,37.40
2018-12-07T19:29:06.706Z,37.03
2018-12-07T19:31:39.654Z,37.17
2018-12-07T19:34:12.606Z,38.17
2018-12-07T19:36:48.209Z,35.93
2018-12-07T19:39:23.468Z,36.37
2018-12-07T19:42:00.633Z,35.40
2018-12-07T19:44:33.013Z,36.13
2018-12-07T19:47:06.647Z,39.20
2018-12-07T19:49:39.423Z,41.53
2018-12-07T19:52:15.341Z,45.20
2018-12-07T19:54:51.078Z,52.27
2018-12-07T19:57:27.386Z,43.30
2018-12-07T19:59:59.313Z,51.27
2018-12-07T20:02:31.373Z,42.30
2018-12-07T20:05:05.573Z,44.97
2018-12-07T20:07:40.049Z,38.97
2018-12-07T20:10:12.618Z,45.13
2018-12-07T20:12:50.276Z,41.97
2018-12-07T20:15:24.271Z,45.87
2018-12-07T20:18:00.067Z,44.20
2018-12-07T20:20:32.966Z,43.50
2018-12-07T20:23:05.128Z,46.87
2018-12-07T20:25:38.581Z,43.97
2018-12-07T20:28:11.152Z,45.77
2018-12-07T20:30:43.167Z,40.50
2018-12-07T20:33:19.198Z,41.17
2018-12-07T20:35:55.108Z,37.47
2018-12-07T20:41:32.494Z,37.47
2018-12-07T20:44:05.258Z,35.83
2018-12-07T20:46:51.150Z,38.17
2018-12-07T20:49:24.626Z,35.63
2018-12-07T20:52:00.685Z,39.10
2018-12-07T20:54:35.092Z,34.00
2018-12-07T20:57:08.993Z,37.93
2018-12-07T20:59:41.823Z,33.17
2018-12-07T21:02:19.738Z,36.73
2018-12-07T21:04:54.712Z,41.70
2018-12-07T21:07:51.831Z,35.07
2018-12-07T21:10:56.754Z,40.00
2018-12-07T21:17:09.122Z,39.07
2018-12-07T21:19:46.772Z,37.80
2018-12-07T21:22:22.151Z,41.33
2018-12-07T21:24:55.794Z,41.50
2018-12-07T21:27:27.868Z,44.50
2018-12-07T21:30:16.668Z,41.70
2018-12-07T21:32:53.026Z,40.60
2018-12-07T21:35:25.418Z,42.93
2018-12-07T21:38:02.647Z,42.93
2018-12-07T21:43:22.033Z,41.87
2018-12-07T21:45:54.283Z,44.90
2018-12-07T21:48:26.509Z,46.23
2018-12-07T21:51:09.880Z,39.13
2018-12-07T21:53:46.558Z,44.10
2018-12-07T21:56:18.544Z,44.13
2018-12-07T21:58:50.878Z,44.67
2018-12-07T22:01:23.286Z,47.67
2018-12-07T22:03:58.998Z,46.83
2018-12-07T22:06:34.537Z,44.97
2018-12-07T22:09:08.588Z,46.47
2018-12-07T22:11:40.693Z,48.33
2018-12-07T22:14:15.808Z,43.60
2018-12-07T22:16:52.238Z,42.47
2018-12-07T22:19:31.231Z,43.67
2018-12-07T22:22:06.143Z,46.37
2018-12-07T22:24:42.901Z,47.03
2018-12-07T22:27:19.081Z,45.83
2018-12-07T22:29:54.130Z,49.87
2018-12-07T22:32:28.121Z,38.67
2018-12-07T22:35:05.530Z,39.60
2018-12-07T22:37:38.482Z,38.63
2018-12-07T22:40:13.803Z,37.67
2018-12-07T22:42:50.437Z,41.80
2018-12-07T22:45:26.906Z,44.63
2018-12-07T22:48:02.147Z,46.20
2018-12-07T22:50:39.568Z,44.67
2018-12-07T22:53:16.688Z,48.80
2018-12-07T22:55:52.065Z,48.70
2018-12-07T22:58:27.961Z,51.97
2018-12-07T23:01:00.288Z,46.77
2018-12-07T23:03:33.942Z,47.27
2018-12-07T23:06:09.178Z,50.07
2018-12-07T23:08:45.095Z,49.10
2018-12-07T23:11:17.839Z,44.83
2018-12-07T23:13:51.373Z,48.80
2018-12-07T23:16:30.015Z,44.37
2018-12-07T23:19:02.254Z,47.23
2018-12-07T23:21:34.401Z,46.80
2018-12-07T23:24:06.701Z,48.23
2018-12-07T23:26:45.200Z,46.23
2018-12-07T23:29:24.232Z,45.57
2018-12-07T23:31:56.483Z,46.23
2018-12-07T23:34:28.883Z,46.57
2018-12-07T23:37:01.102Z,41.87
2018-12-07T23:39:36.635Z,47.33
2018-12-07T23:42:10.273Z,47.07
2018-12-07T23:44:43.095Z,45.40
2018-12-07T23:47:18.190Z,47.20
2018-12-07T23:49:53.743Z,42.50
2018-12-07T23:52:25.968Z,46.63
2018-12-07T23:55:01.496Z,43.23
2018-12-07T23:57:33.652Z,41.53
